createdAt,value
2023-05-21T00:01:36.060Z,14.72
2023-05-21T00:04:03.475Z,14.82
2023-05-21T00:06:30.361Z,14.81
2023-05-21T00:08:57.112Z,14.68
2023-05-21T00:11:24.127Z,14.75
2023-05-21T00:13:50.655Z,14.80
2023-05-21T00:16:17.159Z,14.91
2023-05-21T00:18:45.014Z,14.88
2023-05-21T00:21:12.312Z,14.83
2023-05-21T00:23:39.785Z,14.88
2023-05-21T00:26:06.493Z,14.93
2023-05-21T00:28:33.007Z,14.86
2023-05-21T00:30:59.473Z,14.81
2023-05-21T00:33:29.310Z,14.80
2023-05-21T00:35:56.860Z,14.84
2023-05-21T00:38:23.905Z,14.86
2023-05-21T00:40:50.777Z,14.81
2023-05-21T00:43:17.262Z,14.79
2023-05-21T00:45:47.471Z,14.80
2023-05-21T00:48:14.885Z,14.68
2023-05-21T00:50:41.918Z,14.74
2023-05-21T00:53:10.052Z,14.79
2023-05-21T00:55:38.077Z,14.77
2023-05-21T00:58:05.186Z,14.75
2023-05-21T01:00:35.823Z,14.68
2023-05-21T01:03:02.434Z,14.74
2023-05-21T01:05:29.250Z,14.73
2023-05-21T01:07:58.120Z,14.77
2023-05-21T01:10:26.148Z,14.66
2023-05-21T01:12:55.189Z,14.75
2023-05-21T01:15:21.885Z,14.78
2023-05-21T01:17:48.912Z,14.76
2023-05-21T01:20:19.868Z,14.80
2023-05-21T01:22:51.981Z,14.80
2023-05-21T01:25:18.844Z,14.76
2023-05-21T01:27:45.564Z,14.78
2023-05-21T01:30:13.275Z,14.78
2023-05-21T01:32:52.408Z,14.71
2023-05-21T01:35:34.164Z,14.73
2023-05-21T01:38:28.198Z,14.74
2023-05-21T01:41:03.560Z,14.69
2023-05-21T01:43:34.018Z,14.66
2023-05-21T01:46:01.817Z,14.65
2023-05-21T01:48:30.128Z,14.63
2023-05-21T01:51:02.376Z,14.53
2023-05-21T01:53:28.913Z,14.52
2023-05-21T01:55:55.878Z,14.54
2023-05-21T01:58:22.988Z,14.55
2023-05-21T02:00:51.171Z,14.45
2023-05-21T02:03:19.396Z,14.51
2023-05-21T02:05:47.032Z,14.46
2023-05-21T02:08:15.082Z,14.39
2023-05-21T02:10:41.664Z,14.43
2023-05-21T02:13:08.205Z,14.41
2023-05-21T02:15:35.123Z,14.36
2023-05-21T02:18:02.404Z,14.37
2023-05-21T02:20:29.008Z,14.32
2023-05-21T02:22:55.688Z,14.30
2023-05-21T02:25:22.370Z,14.30
2023-05-21T02:27:52.859Z,14.40
2023-05-21T02:30:20.066Z,14.36
2023-05-21T02:32:48.690Z,14.36
2023-05-21T02:35:15.856Z,14.41
2023-05-21T02:37:44.050Z,14.35
2023-05-21T02:40:11.579Z,14.42
2023-05-21T02:42:40.260Z,14.42
2023-05-21T02:45:11.597Z,14.45
2023-05-21T02:47:38.932Z,14.44
2023-05-21T02:50:08.825Z,14.41
2023-05-21T02:52:35.653Z,14.29
2023-05-21T02:55:02.323Z,14.36
2023-05-21T02:57:28.878Z,14.38
2023-05-21T02:59:55.582Z,14.35
2023-05-21T03:02:23.803Z,14.33
2023-05-21T03:04:51.583Z,14.30
2023-05-21T03:07:19.146Z,14.37
2023-05-21T03:09:46.415Z,14.33
2023-05-21T03:12:13.343Z,14.31
2023-05-21T03:14:39.812Z,14.34
2023-05-21T03:17:06.525Z,14.34
2023-05-21T03:19:36.729Z,14.36
2023-05-21T03:22:04.702Z,14.36
2023-05-21T03:24:33.173Z,14.30
2023-05-21T03:27:01.472Z,14.27
2023-05-21T03:29:28.844Z,14.28
2023-05-21T03:31:55.814Z,14.23
2023-05-21T03:34:22.461Z,14.30
2023-05-21T03:36:49.183Z,14.37
2023-05-21T03:39:15.861Z,14.35
2023-05-21T03:41:42.435Z,14.23
2023-05-21T03:44:09.097Z,14.19
2023-05-21T03:46:35.903Z,14.21
2023-05-21T03:49:02.710Z,14.22
2023-05-21T03:51:30.876Z,14.30
2023-05-21T03:53:59.121Z,14.26
2023-05-21T03:56:26.267Z,14.18
2023-05-21T03:58:53.195Z,14.25
2023-05-21T04:01:20.007Z,14.26
2023-05-21T04:03:46.981Z,14.26
2023-05-21T04:06:13.849Z,14.27
2023-05-21T04:08:40.343Z,14.15
2023-05-21T04:11:07.064Z,14.32
2023-05-21T04:13:33.520Z,14.37
2023-05-21T04:16:00.109Z,14.38
2023-05-21T04:18:26.856Z,14.42
2023-05-21T04:20:53.844Z,14.40
2023-05-21T04:23:23.734Z,14.45
2023-05-21T04:25:50.921Z,14.42
2023-05-21T04:28:21.138Z,14.51
2023-05-21T04:30:48.100Z,14.47
2023-05-21T04:33:18.255Z,14.49
2023-05-21T04:35:47.347Z,14.56
2023-05-21T04:38:14.228Z,14.52
2023-05-21T04:40:40.876Z,14.50
2023-05-21T04:43:08.259Z,14.54
2023-05-21T04:45:35.217Z,14.52
2023-05-21T04:48:02.946Z,14.69
2023-05-21T04:50:30.971Z,14.66
2023-05-21T04:52:58.921Z,14.66
2023-05-21T04:55:25.997Z,14.60
2023-05-21T04:57:53.014Z,14.62
2023-05-21T05:00:20.188Z,14.75
2023-05-21T05:02:46.861Z,14.73
2023-05-21T05:05:13.460Z,14.73
2023-05-21T05:07:40.194Z,14.88
2023-05-21T05:10:07.268Z,14.91
2023-05-21T05:12:33.762Z,14.92
2023-05-21T05:15:00.273Z,14.81
2023-05-21T05:17:26.755Z,14.78
2023-05-21T05:19:53.319Z,14.93
2023-05-21T05:22:19.795Z,14.67
2023-05-21T05:24:46.317Z,15.04
2023-05-21T05:27:12.860Z,14.99
2023-05-21T05:29:39.344Z,15.03
2023-05-21T05:32:06.370Z,15.05
2023-05-21T05:34:32.889Z,15.09
2023-05-21T05:36:59.455Z,15.09
2023-05-21T05:39:26.055Z,15.00
2023-05-21T05:41:52.639Z,15.09
2023-05-21T05:44:19.229Z,15.08
2023-05-21T05:46:45.879Z,14.93
2023-05-21T05:49:13.665Z,14.85
2023-05-21T05:51:40.917Z,14.96
2023-05-21T05:54:07.451Z,15.04
2023-05-21T05:56:34.204Z,15.06
2023-05-21T05:59:00.756Z,15.18
2023-05-21T06:01:28.117Z,15.24
2023-05-21T06:03:54.763Z,15.22
2023-05-21T06:06:21.337Z,15.25
2023-05-21T06:08:47.915Z,15.20
2023-05-21T06:11:17.186Z,15.21
2023-05-21T06:13:43.729Z,15.22
2023-05-21T06:16:10.346Z,15.26
2023-05-21T06:18:37.548Z,15.37
2023-05-21T06:21:04.116Z,15.25
2023-05-21T06:23:32.672Z,15.37
2023-05-21T06:25:59.304Z,15.51
2023-05-21T06:28:25.863Z,15.38
2023-05-21T06:30:52.502Z,15.33
2023-05-21T06:33:19.124Z,15.50
2023-05-21T06:35:45.798Z,15.58
2023-05-21T06:38:12.432Z,15.65
2023-05-21T06:40:38.913Z,15.73
2023-05-21T06:43:05.548Z,15.84
2023-05-21T06:45:32.162Z,15.82
2023-05-21T06:47:58.710Z,15.74
2023-05-21T06:50:25.509Z,15.83
2023-05-21T06:52:51.980Z,15.81
2023-05-21T06:55:18.660Z,16.03
2023-05-21T06:57:45.173Z,16.08
2023-05-21T07:00:12.345Z,16.14
2023-05-21T07:02:38.961Z,16.20
2023-05-21T07:05:05.950Z,16.31
2023-05-21T07:07:34.901Z,16.33
2023-05-21T07:10:01.394Z,16.46
2023-05-21T07:12:27.852Z,16.37
2023-05-21T07:14:54.543Z,16.64
2023-05-21T07:17:21.051Z,16.82
2023-05-21T07:19:47.661Z,16.90
2023-05-21T07:22:14.538Z,17.13
2023-05-21T07:24:41.266Z,17.35
2023-05-21T07:27:17.792Z,17.63
2023-05-21T07:29:51.058Z,17.61
2023-05-21T07:32:17.693Z,17.79
2023-05-21T07:34:44.189Z,18.03
2023-05-21T07:37:10.862Z,17.88
2023-05-21T07:39:37.851Z,18.17
2023-05-21T07:42:07.094Z,18.57
2023-05-21T07:44:33.601Z,18.32
2023-05-21T07:47:00.097Z,18.47
2023-05-21T07:49:26.626Z,18.57
2023-05-21T07:51:53.077Z,18.95
2023-05-21T07:54:19.812Z,19.08
2023-05-21T07:56:46.576Z,18.93
2023-05-21T07:59:14.614Z,19.04
2023-05-21T08:01:42.105Z,19.19
2023-05-21T08:04:08.850Z,19.26
2023-05-21T08:06:37.470Z,19.35
2023-05-21T08:09:06.151Z,19.27
2023-05-21T08:11:33.094Z,19.25
2023-05-21T08:13:59.950Z,19.79
2023-05-21T08:16:26.992Z,20.19
2023-05-21T08:18:53.668Z,20.85
2023-05-21T08:21:20.827Z,20.99
2023-05-21T08:23:47.535Z,20.50
2023-05-21T08:26:16.489Z,21.26
2023-05-21T08:28:43.434Z,21.19
2023-05-21T08:31:10.009Z,21.89
2023-05-21T08:33:38.373Z,21.34
2023-05-21T08:36:08.416Z,21.53
2023-05-21T08:38:35.019Z,21.27
2023-05-21T08:41:01.672Z,21.93
2023-05-21T08:43:28.764Z,22.42
2023-05-21T08:45:58.812Z,22.88
2023-05-21T08:48:25.495Z,22.51
2023-05-21T08:50:52.959Z,22.70
2023-05-21T08:53:27.457Z,22.66
2023-05-21T08:55:56.238Z,22.42
2023-05-21T08:58:23.003Z,23.05
2023-05-21T09:00:50.016Z,23.71
2023-05-21T09:03:16.736Z,23.64
2023-05-21T09:05:45.186Z,24.39
2023-05-21T09:08:19.405Z,24.58
2023-05-21T09:10:50.902Z,24.35
2023-05-21T09:13:18.478Z,24.70
2023-05-21T09:15:46.022Z,24.81
2023-05-21T09:18:13.603Z,24.82
2023-05-21T09:20:40.824Z,23.89
2023-05-21T09:23:12.553Z,23.91
2023-05-21T09:25:39.716Z,22.62
2023-05-21T09:28:12.286Z,22.86
2023-05-21T09:30:46.795Z,22.56
2023-05-21T09:33:24.473Z,22.98
2023-05-21T09:35:51.006Z,23.66
2023-05-21T09:38:17.787Z,23.30
2023-05-21T09:40:47.917Z,23.19
2023-05-21T09:43:18.556Z,23.33
2023-05-21T09:45:53.350Z,23.46
2023-05-21T09:48:38.390Z,23.79
2023-05-21T09:51:16.617Z,24.03
2023-05-21T09:53:53.402Z,24.39
2023-05-21T09:56:25.765Z,24.20
2023-05-21T09:58:56.938Z,25.04
2023-05-21T10:01:24.125Z,25.09
2023-05-21T10:03:56.013Z,24.28
2023-05-21T10:06:26.425Z,24.80
2023-05-21T10:08:56.740Z,24.93
2023-05-21T10:11:27.133Z,24.97
2023-05-21T10:14:06.727Z,25.19
2023-05-21T10:16:34.643Z,25.48
2023-05-21T10:19:01.970Z,24.80
2023-05-21T10:21:28.674Z,24.79
2023-05-21T10:23:58.738Z,25.71
2023-05-21T10:26:26.399Z,25.88
2023-05-21T10:28:56.156Z,25.62
2023-05-21T10:31:23.340Z,25.18
2023-05-21T10:33:51.142Z,25.57
2023-05-21T10:36:18.741Z,26.02
2023-05-21T10:38:46.460Z,26.06
2023-05-21T10:41:17.263Z,26.33
2023-05-21T10:43:52.934Z,27.16
2023-05-21T10:46:22.290Z,27.19
2023-05-21T10:48:57.705Z,27.68
2023-05-21T10:51:29.154Z,27.63
2023-05-21T10:54:11.015Z,27.86
2023-05-21T10:57:06.196Z,27.60
2023-05-21T10:59:48.546Z,27.24
2023-05-21T11:02:16.711Z,27.35
2023-05-21T11:04:49.072Z,27.30
2023-05-21T11:07:23.901Z,27.36
2023-05-21T11:09:50.971Z,27.70
2023-05-21T11:12:18.105Z,27.44
2023-05-21T11:14:58.021Z,27.24
2023-05-21T11:17:40.006Z,27.08
2023-05-21T11:20:16.749Z,27.35
2023-05-21T11:22:46.608Z,27.43
2023-05-21T11:25:13.559Z,27.27
2023-05-21T11:27:42.222Z,27.08
2023-05-21T11:30:10.711Z,26.83
2023-05-21T11:33:01.527Z,27.20
2023-05-21T11:35:28.126Z,27.91
2023-05-21T11:37:54.788Z,27.55
2023-05-21T11:40:30.208Z,27.85
2023-05-21T11:42:57.280Z,27.95
2023-05-21T11:45:29.000Z,27.72
2023-05-21T11:47:56.221Z,28.23
2023-05-21T11:50:23.163Z,27.92
2023-05-21T11:52:50.934Z,27.70
2023-05-21T11:55:21.922Z,27.78
2023-05-21T11:57:52.246Z,27.54
2023-05-21T12:00:18.711Z,27.09
2023-05-21T12:02:48.443Z,28.08
2023-05-21T12:05:15.287Z,27.73
2023-05-21T12:07:42.467Z,28.24
2023-05-21T12:10:09.482Z,28.20
2023-05-21T12:12:46.079Z,28.22
2023-05-21T12:15:20.586Z,28.21
2023-05-21T12:17:51.143Z,27.84
2023-05-21T12:20:17.873Z,28.00
2023-05-21T12:22:44.779Z,27.74
2023-05-21T12:25:12.169Z,28.30
2023-05-21T12:27:39.365Z,28.25
2023-05-21T12:30:06.731Z,28.12
2023-05-21T12:32:33.285Z,28.01
2023-05-21T12:34:59.936Z,28.02
2023-05-21T12:37:32.597Z,27.67
2023-05-21T12:40:01.250Z,27.66
2023-05-21T12:42:35.062Z,27.68
2023-05-21T12:45:09.349Z,27.22
2023-05-21T12:47:36.534Z,27.03
2023-05-21T12:50:08.068Z,26.67
2023-05-21T12:52:34.737Z,25.89
2023-05-21T12:55:01.380Z,25.49
2023-05-21T12:57:35.562Z,26.25
2023-05-21T13:00:03.766Z,26.41
2023-05-21T13:02:40.249Z,26.28
2023-05-21T13:05:09.075Z,26.14
2023-05-21T13:07:38.080Z,26.47
2023-05-21T13:10:06.232Z,26.94
2023-05-21T13:12:33.966Z,26.98
2023-05-21T13:15:02.327Z,27.50
2023-05-21T13:17:30.670Z,28.06
2023-05-21T13:20:09.525Z,27.65
2023-05-21T13:22:43.650Z,27.57
2023-05-21T13:25:11.790Z,27.50
2023-05-21T13:27:41.880Z,27.11
2023-05-21T13:30:09.470Z,27.20
2023-05-21T13:32:36.631Z,27.01
2023-05-21T13:35:03.504Z,26.90
2023-05-21T13:37:30.726Z,26.36
2023-05-21T13:39:57.462Z,26.17
2023-05-21T13:42:24.293Z,26.21
2023-05-21T13:44:50.788Z,26.18
2023-05-21T13:47:17.420Z,26.04
2023-05-21T13:49:43.908Z,25.98
2023-05-21T13:52:10.668Z,26.44
2023-05-21T13:54:37.422Z,26.19
2023-05-21T13:57:04.498Z,26.53
2023-05-21T13:59:33.444Z,26.36
2023-05-21T14:02:01.062Z,26.47
2023-05-21T14:04:27.668Z,26.29
2023-05-21T14:06:54.471Z,26.35
2023-05-21T14:09:21.432Z,26.40
2023-05-21T14:11:47.920Z,26.35
2023-05-21T14:14:18.901Z,26.40
2023-05-21T14:16:47.314Z,26.13
2023-05-21T14:19:14.373Z,26.35
2023-05-21T14:21:41.083Z,26.11
2023-05-21T14:24:07.758Z,26.01
2023-05-21T14:26:36.672Z,25.86
2023-05-21T14:29:03.219Z,25.96
2023-05-21T14:31:29.868Z,26.41
2023-05-21T14:33:56.391Z,26.32
2023-05-21T14:36:22.906Z,25.97
2023-05-21T14:38:49.528Z,26.06
2023-05-21T14:41:16.034Z,25.75
2023-05-21T14:43:42.518Z,25.91
2023-05-21T14:46:09.004Z,25.62
2023-05-21T14:48:35.596Z,25.52
2023-05-21T14:51:02.126Z,25.49
2023-05-21T14:53:28.661Z,25.69
2023-05-21T14:55:55.456Z,25.57
2023-05-21T14:58:21.940Z,25.34
2023-05-21T15:00:48.521Z,25.59
2023-05-21T15:03:15.049Z,25.48
2023-05-21T15:05:41.667Z,25.24
2023-05-21T15:08:09.609Z,25.12
2023-05-21T15:10:36.323Z,25.17
2023-05-21T15:13:04.023Z,25.17
2023-05-21T15:15:30.522Z,24.97
2023-05-21T15:17:57.827Z,24.86
2023-05-21T15:20:24.561Z,24.89
2023-05-21T15:22:53.504Z,24.98
2023-05-21T15:25:24.167Z,24.56
2023-05-21T15:27:50.806Z,24.89
2023-05-21T15:30:17.441Z,24.72
2023-05-21T15:32:44.097Z,24.71
2023-05-21T15:35:10.789Z,24.65
2023-05-21T15:37:37.347Z,24.53
2023-05-21T15:40:04.608Z,24.41
2023-05-21T15:42:31.782Z,24.48
2023-05-21T15:44:58.694Z,24.05
2023-05-21T15:47:25.419Z,23.95
2023-05-21T15:49:51.953Z,24.20
2023-05-21T15:52:19.863Z,24.35
2023-05-21T15:54:46.921Z,24.53
2023-05-21T15:57:13.534Z,24.36
2023-05-21T15:59:40.176Z,24.21
2023-05-21T16:02:07.794Z,24.19
2023-05-21T16:04:34.523Z,24.26
2023-05-21T16:07:01.007Z,24.33
2023-05-21T16:09:27.550Z,24.50
2023-05-21T16:11:54.000Z,24.35
2023-05-21T16:14:20.573Z,24.28
2023-05-21T16:16:47.139Z,24.09
2023-05-21T16:19:14.020Z,24.00
2023-05-21T16:21:41.521Z,24.10
2023-05-21T16:24:08.023Z,24.04
2023-05-21T16:26:34.517Z,24.11
2023-05-21T16:29:02.271Z,24.19
2023-05-21T16:31:29.084Z,24.08
2023-05-21T16:33:55.885Z,23.96
2023-05-21T16:36:22.438Z,24.04
2023-05-21T16:38:48.917Z,23.85
2023-05-21T16:41:15.659Z,23.80
2023-05-21T16:43:42.196Z,23.49
2023-05-21T16:46:08.739Z,23.65
2023-05-21T16:48:37.348Z,23.64
2023-05-21T16:51:04.568Z,23.76
2023-05-21T16:53:31.154Z,23.85
2023-05-21T16:55:57.683Z,23.62
2023-05-21T16:58:24.530Z,23.65
2023-05-21T17:00:51.030Z,23.65
2023-05-21T17:03:17.911Z,23.56
2023-05-21T17:05:44.399Z,23.51
2023-05-21T17:08:11.034Z,23.50
2023-05-21T17:10:38.026Z,23.53
2023-05-21T17:13:17.776Z,23.52
2023-05-21T17:15:47.804Z,23.40
2023-05-21T17:18:14.391Z,23.33
2023-05-21T17:20:41.088Z,23.26
2023-05-21T17:23:07.708Z,23.24
2023-05-21T17:25:34.693Z,23.20
2023-05-21T17:28:01.702Z,23.08
2023-05-21T17:30:28.172Z,23.16
2023-05-21T17:32:55.009Z,23.19
2023-05-21T17:35:21.523Z,23.05
2023-05-21T17:37:48.128Z,23.03
2023-05-21T17:40:14.696Z,22.81
2023-05-21T17:42:41.225Z,22.80
2023-05-21T17:45:08.090Z,22.88
2023-05-21T17:47:34.707Z,22.81
2023-05-21T17:50:01.329Z,22.81
2023-05-21T17:52:27.918Z,22.71
2023-05-21T17:54:54.848Z,22.67
2023-05-21T17:57:21.372Z,22.62
2023-05-21T17:59:48.037Z,22.45
2023-05-21T18:02:14.567Z,22.53
2023-05-21T18:04:41.045Z,22.54
2023-05-21T18:07:07.518Z,22.42
2023-05-21T18:09:34.497Z,22.27
2023-05-21T18:12:02.665Z,22.15
2023-05-21T18:14:29.103Z,22.13
2023-05-21T18:16:56.012Z,22.10
2023-05-21T18:19:22.689Z,21.85
2023-05-21T18:21:49.557Z,21.92
2023-05-21T18:24:16.027Z,21.84
2023-05-21T18:26:43.456Z,21.80
2023-05-21T18:29:11.264Z,21.63
2023-05-21T18:31:37.776Z,21.54
2023-05-21T18:34:04.327Z,21.52
2023-05-21T18:36:38.334Z,21.47
2023-05-21T18:39:06.328Z,21.44
2023-05-21T18:41:33.438Z,21.41
2023-05-21T18:44:01.733Z,21.39
2023-05-21T18:46:31.662Z,21.34
2023-05-21T18:48:59.899Z,21.27
2023-05-21T18:51:26.524Z,21.13
2023-05-21T18:53:53.269Z,21.07
2023-05-21T18:56:19.950Z,20.99
2023-05-21T18:58:47.664Z,20.77
2023-05-21T19:01:14.393Z,20.76
2023-05-21T19:03:41.041Z,20.76
2023-05-21T19:06:08.488Z,20.71
2023-05-21T19:08:35.076Z,20.69
2023-05-21T19:11:01.678Z,20.59
2023-05-21T19:13:28.212Z,20.46
2023-05-21T19:15:54.967Z,20.28
2023-05-21T19:18:21.569Z,20.21
2023-05-21T19:20:48.121Z,20.12
2023-05-21T19:23:15.188Z,20.14
2023-05-21T19:25:41.770Z,20.08
2023-05-21T19:28:08.292Z,19.87
2023-05-21T19:30:36.413Z,19.89
2023-05-21T19:33:03.506Z,19.81
2023-05-21T19:35:30.455Z,19.71
2023-05-21T19:38:00.180Z,19.73
2023-05-21T19:40:27.246Z,19.57
2023-05-21T19:42:53.674Z,19.55
2023-05-21T19:45:21.492Z,19.47
2023-05-21T19:47:48.383Z,19.38
2023-05-21T19:50:15.032Z,19.47
2023-05-21T19:52:41.513Z,19.33
2023-05-21T19:55:10.289Z,19.35
2023-05-21T19:57:37.219Z,19.14
2023-05-21T20:00:05.466Z,19.18
2023-05-21T20:02:32.270Z,19.20
2023-05-21T20:04:59.190Z,19.07
2023-05-21T20:07:25.889Z,19.05
2023-05-21T20:09:52.468Z,19.00
2023-05-21T20:12:19.287Z,18.98
2023-05-21T20:14:47.517Z,19.01
2023-05-21T20:17:14.772Z,18.92
2023-05-21T20:19:41.384Z,18.87
2023-05-21T20:22:08.303Z,18.74
2023-05-21T20:24:34.821Z,18.77
2023-05-21T20:27:01.774Z,18.63
2023-05-21T20:29:28.884Z,18.56
2023-05-21T20:31:55.699Z,18.65
2023-05-21T20:34:22.263Z,18.63
2023-05-21T20:36:48.788Z,18.68
2023-05-21T20:39:15.601Z,18.58
2023-05-21T20:41:44.667Z,18.42
2023-05-21T20:44:12.048Z,18.42
2023-05-21T20:46:39.001Z,18.45
2023-05-21T20:49:05.907Z,18.38
2023-05-21T20:51:32.948Z,18.33
2023-05-21T20:53:59.600Z,18.34
2023-05-21T20:56:40.889Z,18.31
2023-05-21T20:59:10.441Z,18.26
2023-05-21T21:01:37.945Z,18.20
2023-05-21T21:04:05.186Z,18.23
2023-05-21T21:06:32.288Z,18.13
2023-05-21T21:08:58.853Z,18.07
2023-05-21T21:11:27.012Z,18.10
2023-05-21T21:13:53.571Z,18.09
2023-05-21T21:16:20.307Z,18.03
2023-05-21T21:18:47.156Z,18.03
2023-05-21T21:21:14.067Z,17.88
2023-05-21T21:23:40.726Z,17.84
2023-05-21T21:26:07.280Z,17.86
2023-05-21T21:28:33.992Z,17.86
2023-05-21T21:31:00.770Z,17.87
2023-05-21T21:33:28.442Z,17.85
2023-05-21T21:35:55.465Z,17.74
2023-05-21T21:38:22.245Z,17.77
2023-05-21T21:40:48.900Z,17.74
2023-05-21T21:43:15.442Z,17.72
2023-05-21T21:45:41.998Z,17.65
2023-05-21T21:48:08.678Z,17.67
2023-05-21T21:50:35.435Z,17.47
2023-05-21T21:53:03.632Z,17.55
2023-05-21T21:55:30.371Z,17.57
2023-05-21T21:57:56.977Z,17.65
2023-05-21T22:00:26.755Z,17.56
2023-05-21T22:02:53.917Z,17.57
2023-05-21T22:05:20.887Z,17.63
2023-05-21T22:07:47.704Z,17.62
2023-05-21T22:10:15.954Z,17.38
2023-05-21T22:12:42.985Z,17.45
2023-05-21T22:15:17.935Z,17.54
2023-05-21T22:17:44.860Z,17.53
2023-05-21T22:20:11.491Z,17.60
2023-05-21T22:22:38.039Z,17.46
2023-05-21T22:25:05.134Z,17.50
2023-05-21T22:27:31.634Z,17.40
2023-05-21T22:29:58.211Z,17.44
2023-05-21T22:32:24.714Z,17.45
2023-05-21T22:34:51.178Z,17.50
2023-05-21T22:37:17.865Z,17.49
2023-05-21T22:39:44.619Z,17.40
2023-05-21T22:42:11.421Z,17.42
2023-05-21T22:44:37.900Z,17.34
2023-05-21T22:47:04.674Z,17.22
2023-05-21T22:49:32.676Z,17.23
2023-05-21T22:52:05.344Z,17.14
2023-05-21T22:54:32.788Z,17.29
2023-05-21T22:57:01.134Z,17.24
2023-05-21T22:59:32.336Z,17.36
2023-05-21T23:01:59.298Z,17.48
2023-05-21T23:04:42.686Z,17.34
2023-05-21T23:07:10.738Z,17.54
2023-05-21T23:09:37.381Z,17.55
2023-05-21T23:12:04.480Z,17.55
2023-05-21T23:14:31.122Z,17.57
2023-05-21T23:17:01.944Z,17.53
2023-05-21T23:19:29.547Z,17.36
2023-05-21T23:21:56.398Z,17.44
2023-05-21T23:24:23.116Z,17.45
2023-05-21T23:26:49.818Z,17.49
2023-05-21T23:29:16.811Z,17.51
2023-05-21T23:31:43.715Z,17.44
2023-05-21T23:34:10.690Z,17.51
2023-05-21T23:36:37.318Z,17.45
2023-05-21T23:39:03.924Z,17.51
2023-05-21T23:41:30.521Z,17.44
2023-05-21T23:43:57.050Z,17.44
2023-05-21T23:46:23.665Z,17.31
2023-05-21T23:48:50.231Z,17.36
2023-05-21T23:51:18.302Z,17.29
2023-05-21T23:53:45.474Z,17.10
2023-05-21T23:56:12.112Z,17.24
2023-05-21T23:58:38.632Z,17.22
